PWSweather.com
Personal Weather Stations
Station Observations
ANTHEMNP
Anthem, AZ 85086

Anthem, AZ 85086

Lat: 33.876464, Lon: -112.13861199999997

Elevation: 1930

Station Type: AcuRite 1036

Latest ConditionsUpdated 5:05:01 AM MST Friday, Jun 23, 2017
Currently Today's Max Today's Min Today's Average
Temperature 79.9°F26.6°C 92.5°F33.6°C 79.9°F26.6°C 86.3°F30.2°C
Dew Point 56.0°F13.3°C 57.9°F14.4°C 55.7°F13.2°C 57.1°F13.9°C
Winds Calm Calm 8.1 mph SSW13.0 kmh SSW - 2.1 mph 3.4 kmh
Wind Gusts -- 8.1 mph13.0 kmh - -
Humidity 44% 44% 31% 38%
Pressure 29.82 in1009.8 mb 29.82 in1009.8 mb 29.78 in1008.5 mb -
Hour Temp Dew Point Humidity Winds Wind Gusts Pressure Precip Precip Rate Daily Precip Total
05:05 AM 79.9°F26.6°C 56.0°F13.3°C 44% Calm Calm -- 29.82 in1009.8 mb - 0.00 in0.0 mm 0.00 in0.0 mm
05:00 AM 79.9°F26.6°C 56.0°F13.3°C 44% Calm Calm -- 29.82 in1009.8 mb - 0.00 in0.0 mm 0.00 in0.0 mm
04:55 AM 80.3°F26.8°C 55.7°F13.2°C 43% Calm Calm -- 29.82 in1009.8 mb - 0.00 in0.0 mm 0.00 in0.0 mm
04:50 AM 80.8°F27.1°C 56.2°F13.4°C 43% Calm Calm -- 29.81 in1009.5 mb - 0.00 in0.0 mm 0.00 in0.0 mm
04:45 AM 81.0°F27.2°C 56.4°F13.6°C 43% Calm Calm -- 29.81 in1009.5 mb - 0.00 in0.0 mm 0.00 in0.0 mm
04:40 AM 81.1°F27.3°C 56.5°F13.6°C 43% Calm Calm -- 29.81 in1009.5 mb - 0.00 in0.0 mm 0.00 in0.0 mm
04:35 AM 81.1°F27.3°C 56.5°F13.6°C 43% Calm Calm -- 29.81 in1009.5 mb - 0.00 in0.0 mm 0.00 in0.0 mm
04:30 AM 81.7°F27.6°C 57.0°F13.9°C 43% Calm Calm -- 29.80 in1009.1 mb - 0.00 in0.0 mm 0.00 in0.0 mm
04:25 AM 82.0°F27.8°C 56.6°F13.7°C 42% Calm Calm -- 29.80 in1009.1 mb - 0.00 in0.0 mm 0.00 in0.0 mm
04:20 AM 82.4°F28.0°C 57.0°F13.9°C 42% Calm Calm -- 29.80 in1009.1 mb - 0.00 in0.0 mm 0.00 in0.0 mm
04:15 AM 82.6°F28.1°C 57.2°F14.0°C 42% Calm Calm -- 29.80 in1009.1 mb - 0.00 in0.0 mm 0.00 in0.0 mm
04:10 AM 82.8°F28.2°C 57.4°F14.1°C 42% Calm Calm -- 29.80 in1009.1 mb - 0.00 in0.0 mm 0.00 in0.0 mm
04:05 AM 82.6°F28.1°C 57.2°F14.0°C 42% Calm Calm -- 29.80 in1009.1 mb - 0.00 in0.0 mm 0.00 in0.0 mm
04:00 AM 82.0°F27.8°C 56.6°F13.7°C 42% Calm Calm -- 29.80 in1009.1 mb - 0.00 in0.0 mm 0.00 in0.0 mm
03:55 AM 82.2°F27.9°C 56.8°F13.8°C 42% Calm Calm -- 29.79 in1008.8 mb - 0.00 in0.0 mm 0.00 in0.0 mm
03:50 AM 82.0°F27.8°C 56.6°F13.7°C 42% 1.2 mph NE1.9 kmh NE 1.2 mph1.9 kmh 29.79 in1008.8 mb - 0.00 in0.0 mm 0.00 in0.0 mm
03:45 AM 82.4°F28.0°C 57.0°F13.9°C 42% Calm Calm -- 29.79 in1008.8 mb - 0.00 in0.0 mm 0.00 in0.0 mm
03:40 AM 82.8°F28.2°C 56.7°F13.7°C 41% Calm Calm -- 29.79 in1008.8 mb - 0.00 in0.0 mm 0.00 in0.0 mm
03:35 AM 82.8°F28.2°C 56.7°F13.7°C 41% Calm Calm -- 29.79 in1008.8 mb - 0.00 in0.0 mm 0.00 in0.0 mm
03:30 AM 83.3°F28.5°C 57.1°F13.9°C 41% Calm Calm -- 29.79 in1008.8 mb - 0.00 in0.0 mm 0.00 in0.0 mm
03:25 AM 83.5°F28.6°C 57.3°F14.1°C 41% Calm Calm 2.3 mph3.7 kmh 29.79 in1008.8 mb - 0.00 in0.0 mm 0.00 in0.0 mm
03:20 AM 83.8°F28.8°C 56.9°F13.8°C 40% Calm Calm -- 29.79 in1008.8 mb - 0.00 in0.0 mm 0.00 in0.0 mm
03:15 AM 84.2°F29.0°C 57.2°F14.0°C 40% Calm Calm 1.2 mph1.9 kmh 29.79 in1008.8 mb - 0.00 in0.0 mm 0.00 in0.0 mm
03:10 AM 84.4°F29.1°C 57.4°F14.1°C 40% Calm Calm -- 29.79 in1008.8 mb - 0.00 in0.0 mm 0.00 in0.0 mm
03:05 AM 84.6°F29.2°C 57.6°F14.2°C 40% 3.5 mph SE5.6 kmh SE 2.3 mph3.7 kmh 29.79 in1008.8 mb - 0.00 in0.0 mm 0.00 in0.0 mm
03:00 AM 84.6°F29.2°C 57.6°F14.2°C 40% 3.5 mph SSE5.6 kmh SSE 3.5 mph5.6 kmh 29.79 in1008.8 mb - 0.00 in0.0 mm 0.00 in0.0 mm
02:55 AM 84.4°F29.1°C 57.4°F14.1°C 40% 2.3 mph SE3.7 kmh SE 3.5 mph5.6 kmh 29.79 in1008.8 mb - 0.00 in0.0 mm 0.00 in0.0 mm
02:50 AM 84.7°F29.3°C 57.7°F14.3°C 40% Calm Calm 1.2 mph1.9 kmh 29.79 in1008.8 mb - 0.00 in0.0 mm 0.00 in0.0 mm
02:45 AM 85.0°F29.4°C 57.2°F14.0°C 39% 2.3 mph SE3.7 kmh SE 2.3 mph3.7 kmh 29.79 in1008.8 mb - 0.00 in0.0 mm 0.00 in0.0 mm
02:40 AM 85.3°F29.6°C 56.8°F13.8°C 38% Calm Calm -- 29.78 in1008.5 mb - 0.00 in0.0 mm 0.00 in0.0 mm
02:35 AM 85.5°F29.7°C 57.0°F13.9°C 38% 1.2 mph S1.9 kmh S 1.2 mph1.9 kmh 29.78 in1008.5 mb - 0.00 in0.0 mm 0.00 in0.0 mm
02:30 AM 85.9°F29.9°C 57.3°F14.1°C 38% Calm Calm -- 29.78 in1008.5 mb - 0.00 in0.0 mm 0.00 in0.0 mm
02:25 AM 86.4°F30.2°C 57.0°F13.9°C 37% Calm Calm -- 29.78 in1008.5 mb - 0.00 in0.0 mm 0.00 in0.0 mm
02:20 AM 86.8°F30.4°C 57.4°F14.1°C 37% Calm Calm -- 29.78 in1008.5 mb - 0.00 in0.0 mm 0.00 in0.0 mm
02:15 AM 87.3°F30.7°C 57.8°F14.3°C 37% Calm Calm -- 29.78 in1008.5 mb - 0.00 in0.0 mm 0.00 in0.0 mm
02:10 AM 87.4°F30.8°C 57.9°F14.4°C 37% 2.3 mph SE3.7 kmh SE 4.6 mph7.4 kmh 29.78 in1008.5 mb - 0.00 in0.0 mm 0.00 in0.0 mm
02:05 AM 87.8°F31.0°C 57.5°F14.2°C 36% 1.2 mph S1.9 kmh S 1.2 mph1.9 kmh 29.78 in1008.5 mb - 0.00 in0.0 mm 0.00 in0.0 mm
02:00 AM 88.0°F31.1°C 57.7°F14.3°C 36% 2.3 mph S3.7 kmh S 2.3 mph3.7 kmh 29.78 in1008.5 mb - 0.00 in0.0 mm 0.00 in0.0 mm
01:55 AM 88.2°F31.2°C 57.9°F14.4°C 36% 4.6 mph SSW7.4 kmh SSW 6.9 mph11.1 kmh 29.78 in1008.5 mb - 0.00 in0.0 mm 0.00 in0.0 mm
01:50 AM 88.3°F31.3°C 57.2°F14.0°C 35% 3.5 mph S5.6 kmh S 5.8 mph9.3 kmh 29.78 in1008.5 mb - 0.00 in0.0 mm 0.00 in0.0 mm
01:45 AM 88.7°F31.5°C 57.5°F14.2°C 35% 5.8 mph SW9.3 kmh SW 6.9 mph11.1 kmh 29.78 in1008.5 mb - 0.00 in0.0 mm 0.00 in0.0 mm
01:40 AM 88.9°F31.6°C 57.7°F14.3°C 35% 2.3 mph SW3.7 kmh SW 2.3 mph3.7 kmh 29.79 in1008.8 mb - 0.00 in0.0 mm 0.00 in0.0 mm
01:35 AM 89.1°F31.7°C 57.1°F13.9°C 34% 3.5 mph SW5.6 kmh SW 4.6 mph7.4 kmh 29.79 in1008.8 mb - 0.00 in0.0 mm 0.00 in0.0 mm
01:30 AM 89.4°F31.9°C 57.3°F14.1°C 34% 2.3 mph SW3.7 kmh SW 3.5 mph5.6 kmh 29.79 in1008.8 mb - 0.00 in0.0 mm 0.00 in0.0 mm
01:25 AM 89.6°F32.0°C 57.5°F14.2°C 34% 4.6 mph SE7.4 kmh SE 4.6 mph7.4 kmh 29.79 in1008.8 mb - 0.00 in0.0 mm 0.00 in0.0 mm
01:20 AM 89.8°F32.1°C 56.9°F13.8°C 33% 5.8 mph SW9.3 kmh SW 5.8 mph9.3 kmh 29.79 in1008.8 mb - 0.00 in0.0 mm 0.00 in0.0 mm
01:15 AM 90.0°F32.2°C 57.0°F13.9°C 33% 3.5 mph S5.6 kmh S 5.8 mph9.3 kmh 29.78 in1008.5 mb - 0.00 in0.0 mm 0.00 in0.0 mm
01:10 AM 90.0°F32.2°C 57.0°F13.9°C 33% 3.5 mph SW5.6 kmh SW 4.6 mph7.4 kmh 29.78 in1008.5 mb - 0.00 in0.0 mm 0.00 in0.0 mm
01:05 AM 90.3°F32.4°C 57.3°F14.1°C 33% 3.5 mph SW5.6 kmh SW 3.5 mph5.6 kmh 29.78 in1008.5 mb - 0.00 in0.0 mm 0.00 in0.0 mm
01:00 AM 90.6°F32.6°C 57.6°F14.2°C 33% 3.5 mph SSW5.6 kmh SSW 6.9 mph11.1 kmh 29.78 in1008.5 mb - 0.00 in0.0 mm 0.00 in0.0 mm
12:55 AM 90.9°F32.7°C 57.0°F13.9°C 32% 4.6 mph S7.4 kmh S 4.6 mph7.4 kmh 29.78 in1008.5 mb - 0.00 in0.0 mm 0.00 in0.0 mm
12:50 AM 91.0°F32.8°C 57.0°F13.9°C 32% 4.6 mph S7.4 kmh S 6.9 mph11.1 kmh 29.78 in1008.5 mb - 0.00 in0.0 mm 0.00 in0.0 mm
12:45 AM 91.2°F32.9°C 57.2°F14.0°C 32% 4.6 mph S7.4 kmh S 5.8 mph9.3 kmh 29.78 in1008.5 mb - 0.00 in0.0 mm 0.00 in0.0 mm
12:40 AM 91.4°F33.0°C 57.4°F14.1°C 32% 5.8 mph W9.3 kmh W 5.8 mph9.3 kmh 29.78 in1008.5 mb - 0.00 in0.0 mm 0.00 in0.0 mm
12:35 AM 91.5°F33.1°C 57.5°F14.2°C 32% 4.6 mph SSW7.4 kmh SSW 5.8 mph9.3 kmh 29.78 in1008.5 mb - 0.00 in0.0 mm 0.00 in0.0 mm
12:30 AM 91.6°F33.1°C 57.6°F14.2°C 32% 4.6 mph SSW7.4 kmh SSW 5.8 mph9.3 kmh 29.78 in1008.5 mb - 0.00 in0.0 mm 0.00 in0.0 mm
12:25 AM 91.9°F33.3°C 56.9°F13.8°C 31% 3.5 mph SSW5.6 kmh SSW 5.8 mph9.3 kmh 29.78 in1008.5 mb - 0.00 in0.0 mm 0.00 in0.0 mm
12:20 AM 92.3°F33.5°C 57.3°F14.1°C 31% 4.6 mph SW7.4 kmh SW 4.6 mph7.4 kmh 29.78 in1008.5 mb - 0.00 in0.0 mm 0.00 in0.0 mm
12:15 AM 92.3°F33.5°C 57.3°F14.1°C 31% 5.8 mph S9.3 kmh S 5.8 mph9.3 kmh 29.78 in1008.5 mb - 0.00 in0.0 mm 0.00 in0.0 mm
12:10 AM 92.5°F33.6°C 57.5°F14.2°C 31% 6.9 mph SW11.1 kmh SW 8.1 mph13.0 kmh 29.78 in1008.5 mb - 0.00 in0.0 mm 0.00 in0.0 mm
12:05 AM 92.5°F33.6°C 57.5°F14.2°C 31% 6.9 mph SW11.1 kmh SW 8.1 mph13.0 kmh 29.78 in1008.5 mb - 0.00 in0.0 mm 0.00 in0.0 mm
12:00 AM 92.5°F33.6°C 57.5°F14.2°C 31% 8.1 mph SSW13.0 kmh SSW 8.1 mph13.0 kmh 29.78 in1008.5 mb - 0.00 in0.0 mm 0.00 in0.0 mm